sensor_id;sensor_type;location;lat;lon;timestamp;temperature;humidity
65207;SHT31;58477;48.072;11.970;2023-07-20T00:01:28;16.87;93.78
65207;SHT31;58477;48.072;11.970;2023-07-20T00:03:53;16.91;94.50
65207;SHT31;58477;48.072;11.970;2023-07-20T00:06:22;16.90;94.74
65207;SHT31;58477;48.072;11.970;2023-07-20T00:08:49;16.87;95.41
65207;SHT31;58477;48.072;11.970;2023-07-20T00:11:14;16.87;95.46
65207;SHT31;58477;48.072;11.970;2023-07-20T00:13:40;16.88;95.07
65207;SHT31;58477;48.072;11.970;2023-07-20T00:16:06;16.93;95.24
65207;SHT31;58477;48.072;11.970;2023-07-20T00:18:31;16.95;95.53
65207;SHT31;58477;48.072;11.970;2023-07-20T00:20:57;16.95;94.76
65207;SHT31;58477;48.072;11.970;2023-07-20T00:23:22;16.99;94.53
65207;SHT31;58477;48.072;11.970;2023-07-20T00:25:48;16.99;94.60
65207;SHT31;58477;48.072;11.970;2023-07-20T00:28:14;16.95;94.63
65207;SHT31;58477;48.072;11.970;2023-07-20T00:30:40;16.94;94.49
65207;SHT31;58477;48.072;11.970;2023-07-20T00:33:11;16.94;94.56
65207;SHT31;58477;48.072;11.970;2023-07-20T00:35:40;16.81;93.97
65207;SHT31;58477;48.072;11.970;2023-07-20T00:38:05;16.76;93.87
65207;SHT31;58477;48.072;11.970;2023-07-20T00:40:38;16.72;94.04
65207;SHT31;58477;48.072;11.970;2023-07-20T00:43:03;16.66;94.34
65207;SHT31;58477;48.072;11.970;2023-07-20T00:45:29;16.67;95.04
65207;SHT31;58477;48.072;11.970;2023-07-20T00:47:56;16.72;94.98
65207;SHT31;58477;48.072;11.970;2023-07-20T00:50:22;16.79;95.07
65207;SHT31;58477;48.072;11.970;2023-07-20T00:52:48;16.87;95.64
65207;SHT31;58477;48.072;11.970;2023-07-20T00:55:14;16.84;95.19
65207;SHT31;58477;48.072;11.970;2023-07-20T00:57:39;16.84;94.83
65207;SHT31;58477;48.072;11.970;2023-07-20T01:00:06;16.90;95.65
65207;SHT31;58477;48.072;11.970;2023-07-20T01:02:31;16.93;95.24
65207;SHT31;58477;48.072;11.970;2023-07-20T01:04:57;16.97;95.40
65207;SHT31;58477;48.072;11.970;2023-07-20T01:07:26;17.03;95.54
65207;SHT31;58477;48.072;11.970;2023-07-20T01:10:23;16.95;95.16
65207;SHT31;58477;48.072;11.970;2023-07-20T01:12:54;16.99;94.98
65207;SHT31;58477;48.072;11.970;2023-07-20T01:15:20;16.97;94.99
65207;SHT31;58477;48.072;11.970;2023-07-20T01:17:46;16.97;94.38
65207;SHT31;58477;48.072;11.970;2023-07-20T01:20:13;17.02;94.86
65207;SHT31;58477;48.072;11.970;2023-07-20T01:23:19;17.07;95.05
65207;SHT31;58477;48.072;11.970;2023-07-20T01:33:57;16.74;95.87
65207;SHT31;58477;48.072;11.970;2023-07-20T01:36:29;16.76;96.98
65207;SHT31;58477;48.072;11.970;2023-07-20T01:38:56;16.69;95.24
65207;SHT31;58477;48.072;11.970;2023-07-20T01:41:22;16.70;95.19
65207;SHT31;58477;48.072;11.970;2023-07-20T01:43:48;16.64;95.49
65207;SHT31;58477;48.072;11.970;2023-07-20T01:46:14;16.63;95.72
65207;SHT31;58477;48.072;11.970;2023-07-20T01:48:40;16.60;96.08
65207;SHT31;58477;48.072;11.970;2023-07-20T01:51:07;16.64;96.81
65207;SHT31;58477;48.072;11.970;2023-07-20T01:53:33;16.52;96.46
65207;SHT31;58477;48.072;11.970;2023-07-20T01:55:59;16.59;96.06
65207;SHT31;58477;48.072;11.970;2023-07-20T01:58:24;16.60;96.07
65207;SHT31;58477;48.072;11.970;2023-07-20T02:00:50;16.52;96.26
65207;SHT31;58477;48.072;11.970;2023-07-20T02:03:16;16.69;97.52
65207;SHT31;58477;48.072;11.970;2023-07-20T02:05:44;16.73;96.96
65207;SHT31;58477;48.072;11.970;2023-07-20T02:08:10;16.77;97.53
65207;SHT31;58477;48.072;11.970;2023-07-20T02:10:35;16.77;96.95
65207;SHT31;58477;48.072;11.970;2023-07-20T02:13:01;16.83;96.99
65207;SHT31;58477;48.072;11.970;2023-07-20T02:15:27;16.80;96.68
65207;SHT31;58477;48.072;11.970;2023-07-20T02:17:53;16.76;97.28
65207;SHT31;58477;48.072;11.970;2023-07-20T02:20:18;16.80;97.21
65207;SHT31;58477;48.072;11.970;2023-07-20T02:22:45;16.81;96.65
65207;SHT31;58477;48.072;11.970;2023-07-20T02:25:10;16.87;96.76
65207;SHT31;58477;48.072;11.970;2023-07-20T02:27:37;16.80;96.27
65207;SHT31;58477;48.072;11.970;2023-07-20T02:30:03;16.83;95.73
65207;SHT31;58477;48.072;11.970;2023-07-20T02:32:29;16.85;95.47
65207;SHT31;58477;48.072;11.970;2023-07-20T02:34:55;16.90;95.16
65207;SHT31;58477;48.072;11.970;2023-07-20T02:37:21;16.81;97.21
65207;SHT31;58477;48.072;11.970;2023-07-20T02:39:47;16.94;96.80
65207;SHT31;58477;48.072;11.970;2023-07-20T02:42:12;16.99;96.16
65207;SHT31;58477;48.072;11.970;2023-07-20T02:44:38;16.85;95.94
65207;SHT31;58477;48.072;11.970;2023-07-20T02:47:04;16.69;96.63
65207;SHT31;58477;48.072;11.970;2023-07-20T02:49:30;16.49;96.94
65207;SHT31;58477;48.072;11.970;2023-07-20T02:51:55;16.45;97.84
65207;SHT31;58477;48.072;11.970;2023-07-20T02:54:21;16.63;96.79
65207;SHT31;58477;48.072;11.970;2023-07-20T02:56:47;16.76;96.49
65207;SHT31;58477;48.072;11.970;2023-07-20T02:59:12;16.76;95.93
65207;SHT31;58477;48.072;11.970;2023-07-20T03:01:38;16.70;97.26
65207;SHT31;58477;48.072;11.970;2023-07-20T03:04:03;16.63;97.06
65207;SHT31;58477;48.072;11.970;2023-07-20T03:06:29;16.81;96.88
65207;SHT31;58477;48.072;11.970;2023-07-20T03:08:54;16.87;95.68
65207;SHT31;58477;48.072;11.970;2023-07-20T03:11:20;16.88;95.83
65207;SHT31;58477;48.072;11.970;2023-07-20T03:13:47;16.83;94.51
65207;SHT31;58477;48.072;11.970;2023-07-20T03:16:14;16.84;95.75
65207;SHT31;58477;48.072;11.970;2023-07-20T03:18:42;16.91;96.20
65207;SHT31;58477;48.072;11.970;2023-07-20T03:21:08;16.93;96.41
65207;SHT31;58477;48.072;11.970;2023-07-20T03:23:34;16.87;95.60
65207;SHT31;58477;48.072;11.970;2023-07-20T03:26:03;16.83;96.21
65207;SHT31;58477;48.072;11.970;2023-07-20T03:28:30;16.67;95.80
65207;SHT31;58477;48.072;11.970;2023-07-20T03:30:56;16.55;96.57
65207;SHT31;58477;48.072;11.970;2023-07-20T03:33:25;16.43;93.36
65207;SHT31;58477;48.072;11.970;2023-07-20T03:35:51;16.36;96.11
65207;SHT31;58477;48.072;11.970;2023-07-20T03:38:16;16.29;95.44
65207;SHT31;58477;48.072;11.970;2023-07-20T03:40:56;16.22;96.08
65207;SHT31;58477;48.072;11.970;2023-07-20T03:43:23;16.16;95.49
65207;SHT31;58477;48.072;11.970;2023-07-20T03:45:49;16.12;95.32
65207;SHT31;58477;48.072;11.970;2023-07-20T03:48:20;16.08;95.98
65207;SHT31;58477;48.072;11.970;2023-07-20T03:50:47;16.05;96.11
65207;SHT31;58477;48.072;11.970;2023-07-20T03:53:14;16.12;96.81
65207;SHT31;58477;48.072;11.970;2023-07-20T03:58:12;16.05;97.15
65207;SHT31;58477;48.072;11.970;2023-07-20T04:00:38;16.06;97.08
65207;SHT31;58477;48.072;11.970;2023-07-20T04:03:04;16.01;96.97
65207;SHT31;58477;48.072;11.970;2023-07-20T04:05:29;16.04;97.15
65207;SHT31;58477;48.072;11.970;2023-07-20T04:07:55;16.06;96.96
65207;SHT31;58477;48.072;11.970;2023-07-20T04:10:20;15.91;95.92
65207;SHT31;58477;48.072;11.970;2023-07-20T04:12:46;15.89;96.53
65207;SHT31;58477;48.072;11.970;2023-07-20T04:15:14;15.81;96.24
65207;SHT31;58477;48.072;11.970;2023-07-20T04:17:40;15.74;96.35
65207;SHT31;58477;48.072;11.970;2023-07-20T04:20:07;15.78;96.29
65207;SHT31;58477;48.072;11.970;2023-07-20T04:22:32;15.72;95.78
65207;SHT31;58477;48.072;11.970;2023-07-20T04:24:58;15.69;95.15
65207;SHT31;58477;48.072;11.970;2023-07-20T04:27:23;15.71;95.40
65207;SHT31;58477;48.072;11.970;2023-07-20T04:29:49;15.67;95.01
65207;SHT31;58477;48.072;11.970;2023-07-20T04:32:14;15.74;95.97
65207;SHT31;58477;48.072;11.970;2023-07-20T04:34:39;15.72;94.79
65207;SHT31;58477;48.072;11.970;2023-07-20T04:37:05;15.69;95.24
65207;SHT31;58477;48.072;11.970;2023-07-20T04:39:30;15.69;95.31
65207;SHT31;58477;48.072;11.970;2023-07-20T04:41:57;15.72;95.37
65207;SHT31;58477;48.072;11.970;2023-07-20T04:44:23;15.77;94.40
65207;SHT31;58477;48.072;11.970;2023-07-20T04:46:49;15.79;95.05
65207;SHT31;58477;48.072;11.970;2023-07-20T04:49:15;15.71;93.94
65207;SHT31;58477;48.072;11.970;2023-07-20T04:51:42;15.71;94.37
65207;SHT31;58477;48.072;11.970;2023-07-20T04:54:09;15.77;95.52
65207;SHT31;58477;48.072;11.970;2023-07-20T04:56:36;15.78;94.67
65207;SHT31;58477;48.072;11.970;2023-07-20T04:59:04;15.88;93.87
65207;SHT31;58477;48.072;11.970;2023-07-20T05:01:30;15.94;94.80
65207;SHT31;58477;48.072;11.970;2023-07-20T05:03:55;15.92;94.34
65207;SHT31;58477;48.072;11.970;2023-07-20T05:06:21;15.95;93.52
65207;SHT31;58477;48.072;11.970;2023-07-20T05:08:47;16.08;93.42
65207;SHT31;58477;48.072;11.970;2023-07-20T05:11:12;16.20;93.48
65207;SHT31;58477;48.072;11.970;2023-07-20T05:13:38;16.38;92.84
65207;SHT31;58477;48.072;11.970;2023-07-20T05:16:04;16.84;92.52
65207;SHT31;58477;48.072;11.970;2023-07-20T05:18:30;17.06;91.12
65207;SHT31;58477;48.072;11.970;2023-07-20T05:20:56;16.83;91.67
65207;SHT31;58477;48.072;11.970;2023-07-20T05:23:22;16.72;92.41
65207;SHT31;58477;48.072;11.970;2023-07-20T05:25:58;16.60;92.74
65207;SHT31;58477;48.072;11.970;2023-07-20T05:28:25;16.43;92.58
65207;SHT31;58477;48.072;11.970;2023-07-20T05:30:51;16.18;92.97
65207;SHT31;58477;48.072;11.970;2023-07-20T05:33:18;16.20;93.55
65207;SHT31;58477;48.072;11.970;2023-07-20T05:35:44;16.13;94.07
65207;SHT31;58477;48.072;11.970;2023-07-20T05:38:09;16.05;93.59
65207;SHT31;58477;48.072;11.970;2023-07-20T05:40:37;16.06;92.48
65207;SHT31;58477;48.072;11.970;2023-07-20T05:43:03;16.22;92.89
65207;SHT31;58477;48.072;11.970;2023-07-20T05:45:28;16.48;93.12
65207;SHT31;58477;48.072;11.970;2023-07-20T05:47:54;16.62;92.68
65207;SHT31;58477;48.072;11.970;2023-07-20T05:50:19;16.91;92.42
65207;SHT31;58477;48.072;11.970;2023-07-20T05:52:44;17.10;92.15
65207;SHT31;58477;48.072;11.970;2023-07-20T05:55:10;17.00;90.82
65207;SHT31;58477;48.072;11.970;2023-07-20T05:57:35;17.06;91.77
65207;SHT31;58477;48.072;11.970;2023-07-20T06:00:02;16.93;90.29
65207;SHT31;58477;48.072;11.970;2023-07-20T06:02:37;16.91;90.99
65207;SHT31;58477;48.072;11.970;2023-07-20T06:05:03;17.06;91.12
65207;SHT31;58477;48.072;11.970;2023-07-20T06:07:28;17.14;90.53
65207;SHT31;58477;48.072;11.970;2023-07-20T06:09:54;17.38;90.78
65207;SHT31;58477;48.072;11.970;2023-07-20T06:12:19;17.34;89.90
65207;SHT31;58477;48.072;11.970;2023-07-20T06:14:45;17.41;90.08
65207;SHT31;58477;48.072;11.970;2023-07-20T06:17:10;17.64;89.90
65207;SHT31;58477;48.072;11.970;2023-07-20T06:19:35;17.52;89.19
65207;SHT31;58477;48.072;11.970;2023-07-20T06:22:01;17.64;89.42
65207;SHT31;58477;48.072;11.970;2023-07-20T06:24:27;17.62;88.76
65207;SHT31;58477;48.072;11.970;2023-07-20T06:26:52;17.61;88.61
65207;SHT31;58477;48.072;11.970;2023-07-20T06:29:17;17.64;89.57
65207;SHT31;58477;48.072;11.970;2023-07-20T06:31:44;17.74;89.00
65207;SHT31;58477;48.072;11.970;2023-07-20T06:34:09;17.61;89.67
65207;SHT31;58477;48.072;11.970;2023-07-20T06:36:35;17.62;88.78
65207;SHT31;58477;48.072;11.970;2023-07-20T06:39:00;17.62;89.86
65207;SHT31;58477;48.072;11.970;2023-07-20T06:41:25;17.38;88.81
65207;SHT31;58477;48.072;11.970;2023-07-20T06:43:51;17.51;88.58
65207;SHT31;58477;48.072;11.970;2023-07-20T06:46:17;17.52;89.20
65207;SHT31;58477;48.072;11.970;2023-07-20T06:48:43;17.31;88.70
65207;SHT31;58477;48.072;11.970;2023-07-20T06:51:08;17.38;90.01
65207;SHT31;58477;48.072;11.970;2023-07-20T06:53:34;17.30;88.70
65207;SHT31;58477;48.072;11.970;2023-07-20T06:55:59;17.35;88.62
65207;SHT31;58477;48.072;11.970;2023-07-20T06:58:25;17.17;88.17
65207;SHT31;58477;48.072;11.970;2023-07-20T07:00:51;17.27;89.14
65207;SHT31;58477;48.072;11.970;2023-07-20T07:03:16;17.34;88.71
65207;SHT31;58477;48.072;11.970;2023-07-20T07:05:43;17.44;88.92
65207;SHT31;58477;48.072;11.970;2023-07-20T07:08:08;17.42;88.78
65207;SHT31;58477;48.072;11.970;2023-07-20T07:10:37;17.59;87.99
65207;SHT31;58477;48.072;11.970;2023-07-20T07:13:03;17.59;87.78
65207;SHT31;58477;48.072;11.970;2023-07-20T07:15:29;17.93;88.70
65207;SHT31;58477;48.072;11.970;2023-07-20T07:17:54;18.08;86.48
65207;SHT31;58477;48.072;11.970;2023-07-20T07:20:21;18.21;86.15
65207;SHT31;58477;48.072;11.970;2023-07-20T07:22:46;19.06;84.69
65207;SHT31;58477;48.072;11.970;2023-07-20T07:25:12;19.55;82.94
65207;SHT31;58477;48.072;11.970;2023-07-20T07:27:38;20.05;82.93
65207;SHT31;58477;48.072;11.970;2023-07-20T07:30:04;19.62;82.03
65207;SHT31;58477;48.072;11.970;2023-07-20T07:32:30;19.57;82.24
65207;SHT31;58477;48.072;11.970;2023-07-20T07:34:55;19.65;81.62
65207;SHT31;58477;48.072;11.970;2023-07-20T07:37:23;19.81;81.84
65207;SHT31;58477;48.072;11.970;2023-07-20T07:39:49;19.87;81.44
65207;SHT31;58477;48.072;11.970;2023-07-20T07:42:14;20.26;81.36
65207;SHT31;58477;48.072;11.970;2023-07-20T07:44:39;20.15;79.30
65207;SHT31;58477;48.072;11.970;2023-07-20T07:47:05;20.02;81.55
65207;SHT31;58477;48.072;11.970;2023-07-20T07:49:31;20.58;78.46
65207;SHT31;58477;48.072;11.970;2023-07-20T07:51:56;22.41;74.90
65207;SHT31;58477;48.072;11.970;2023-07-20T07:54:22;23.01;71.91
65207;SHT31;58477;48.072;11.970;2023-07-20T07:56:47;23.61;70.16
65207;SHT31;58477;48.072;11.970;2023-07-20T07:59:13;24.05;69.61
65207;SHT31;58477;48.072;11.970;2023-07-20T08:01:38;22.77;69.33
65207;SHT31;58477;48.072;11.970;2023-07-20T08:04:04;23.56;69.72
65207;SHT31;58477;48.072;11.970;2023-07-20T08:06:29;23.16;71.21
65207;SHT31;58477;48.072;11.970;2023-07-20T08:08:55;21.89;71.87
65207;SHT31;58477;48.072;11.970;2023-07-20T08:11:20;23.34;71.28
65207;SHT31;58477;48.072;11.970;2023-07-20T08:13:45;24.50;65.63
65207;SHT31;58477;48.072;11.970;2023-07-20T08:16:11;24.33;67.26
65207;SHT31;58477;48.072;11.970;2023-07-20T08:18:36;24.60;66.92
65207;SHT31;58477;48.072;11.970;2023-07-20T08:21:02;24.49;67.19
65207;SHT31;58477;48.072;11.970;2023-07-20T08:23:28;23.89;69.67
65207;SHT31;58477;48.072;11.970;2023-07-20T08:25:54;24.53;67.21
65207;SHT31;58477;48.072;11.970;2023-07-20T08:28:19;25.63;64.67
65207;SHT31;58477;48.072;11.970;2023-07-20T08:30:49;26.43;64.47
65207;SHT31;58477;48.072;11.970;2023-07-20T08:33:16;26.40;62.69
65207;SHT31;58477;48.072;11.970;2023-07-20T08:35:43;26.33;61.95
65207;SHT31;58477;48.072;11.970;2023-07-20T08:38:08;25.19;61.84
65207;SHT31;58477;48.072;11.970;2023-07-20T08:40:39;24.27;65.43
65207;SHT31;58477;48.072;11.970;2023-07-20T08:43:05;22.93;68.30
65207;SHT31;58477;48.072;11.970;2023-07-20T08:45:33;23.21;68.56
65207;SHT31;58477;48.072;11.970;2023-07-20T08:48:00;23.15;69.20
65207;SHT31;58477;48.072;11.970;2023-07-20T08:50:30;22.57;67.04
65207;SHT31;58477;48.072;11.970;2023-07-20T08:52:57;22.17;67.77
65207;SHT31;58477;48.072;11.970;2023-07-20T08:55:23;22.23;67.60
65207;SHT31;58477;48.072;11.970;2023-07-20T08:57:50;22.53;68.74
65207;SHT31;58477;48.072;11.970;2023-07-20T09:00:16;22.02;69.77
65207;SHT31;58477;48.072;11.970;2023-07-20T09:02:45;22.36;68.35
65207;SHT31;58477;48.072;11.970;2023-07-20T09:05:10;22.95;69.55
65207;SHT31;58477;48.072;11.970;2023-07-20T09:07:39;22.88;67.81
65207;SHT31;58477;48.072;11.970;2023-07-20T09:10:05;22.20;68.09
65207;SHT31;58477;48.072;11.970;2023-07-20T09:12:38;22.20;67.43
65207;SHT31;58477;48.072;11.970;2023-07-20T09:15:05;21.99;68.07
65207;SHT31;58477;48.072;11.970;2023-07-20T09:17:31;22.05;69.93
65207;SHT31;58477;48.072;11.970;2023-07-20T09:19:57;21.99;70.34
65207;SHT31;58477;48.072;11.970;2023-07-20T09:22:29;22.54;69.62
65207;SHT31;58477;48.072;11.970;2023-07-20T09:24:55;23.66;66.52
65207;SHT31;58477;48.072;11.970;2023-07-20T09:27:20;22.77;67.58
65207;SHT31;58477;48.072;11.970;2023-07-20T09:29:50;24.36;64.89
65207;SHT31;58477;48.072;11.970;2023-07-20T09:32:19;25.52;61.79
65207;SHT31;58477;48.072;11.970;2023-07-20T09:34:49;25.88;59.04
65207;SHT31;58477;48.072;11.970;2023-07-20T09:37:21;26.07;60.82
65207;SHT31;58477;48.072;11.970;2023-07-20T09:39:47;26.44;59.83
65207;SHT31;58477;48.072;11.970;2023-07-20T09:42:15;25.58;59.94
65207;SHT31;58477;48.072;11.970;2023-07-20T09:44:43;25.21;60.92
65207;SHT31;58477;48.072;11.970;2023-07-20T09:47:09;26.02;60.18
65207;SHT31;58477;48.072;11.970;2023-07-20T09:49:39;26.34;56.19
65207;SHT31;58477;48.072;11.970;2023-07-20T09:52:08;27.31;55.73
65207;SHT31;58477;48.072;11.970;2023-07-20T09:54:35;27.70;54.81
65207;SHT31;58477;48.072;11.970;2023-07-20T09:57:02;27.83;54.06
65207;SHT31;58477;48.072;11.970;2023-07-20T09:59:27;28.75;55.46
65207;SHT31;58477;48.072;11.970;2023-07-20T10:01:57;27.86;55.00
65207;SHT31;58477;48.072;11.970;2023-07-20T10:04:25;28.57;54.42
65207;SHT31;58477;48.072;11.970;2023-07-20T10:06:52;27.78;54.20
65207;SHT31;58477;48.072;11.970;2023-07-20T10:09:20;27.66;50.73
65207;SHT31;58477;48.072;11.970;2023-07-20T10:11:50;28.56;50.90
65207;SHT31;58477;48.072;11.970;2023-07-20T10:14:20;28.60;49.62
65207;SHT31;58477;48.072;11.970;2023-07-20T10:16:58;28.12;50.17
65207;SHT31;58477;48.072;11.970;2023-07-20T10:19:37;27.41;51.81
65207;SHT31;58477;48.072;11.970;2023-07-20T10:22:10;26.94;49.88
65207;SHT31;58477;48.072;11.970;2023-07-20T10:24:38;28.41;51.78
65207;SHT31;58477;48.072;11.970;2023-07-20T10:27:05;28.33;50.71
65207;SHT31;58477;48.072;11.970;2023-07-20T10:29:31;27.53;51.90
65207;SHT31;58477;48.072;11.970;2023-07-20T10:31:57;28.16;51.91
65207;SHT31;58477;48.072;11.970;2023-07-20T10:34:23;28.12;50.09
65207;SHT31;58477;48.072;11.970;2023-07-20T10:36:49;27.32;51.62
65207;SHT31;58477;48.072;11.970;2023-07-20T10:39:24;26.24;50.67
65207;SHT31;58477;48.072;11.970;2023-07-20T10:42:02;25.88;54.26
65207;SHT31;58477;48.072;11.970;2023-07-20T10:44:29;25.08;54.86
65207;SHT31;58477;48.072;11.970;2023-07-20T10:47:02;26.13;53.53
65207;SHT31;58477;48.072;11.970;2023-07-20T10:49:28;25.38;55.12
65207;SHT31;58477;48.072;11.970;2023-07-20T10:52:03;25.29;54.11
65207;SHT31;58477;48.072;11.970;2023-07-20T10:56:57;26.51;50.95
65207;SHT31;58477;48.072;11.970;2023-07-20T11:01:57;28.40;50.28
65207;SHT31;58477;48.072;11.970;2023-07-20T11:04:45;29.28;47.38
65207;SHT31;58477;48.072;11.970;2023-07-20T11:07:16;29.65;45.76
65207;SHT31;58477;48.072;11.970;2023-07-20T11:09:42;30.24;47.16
65207;SHT31;58477;48.072;11.970;2023-07-20T11:12:12;28.81;48.01
65207;SHT31;58477;48.072;11.970;2023-07-20T11:14:42;29.31;46.39
65207;SHT31;58477;48.072;11.970;2023-07-20T11:17:12;29.11;48.26
65207;SHT31;58477;48.072;11.970;2023-07-20T11:19:38;28.14;48.29
65207;SHT31;58477;48.072;11.970;2023-07-20T11:22:04;27.94;50.88
65207;SHT31;58477;48.072;11.970;2023-07-20T11:24:33;28.68;47.73
65207;SHT31;58477;48.072;11.970;2023-07-20T11:26:59;28.20;48.91
65207;SHT31;58477;48.072;11.970;2023-07-20T11:29:25;28.53;48.62
65207;SHT31;58477;48.072;11.970;2023-07-20T11:31:51;27.22;51.47
65207;SHT31;58477;48.072;11.970;2023-07-20T11:34:18;26.73;53.04
65207;SHT31;58477;48.072;11.970;2023-07-20T11:36:46;27.04;53.26
65207;SHT31;58477;48.072;11.970;2023-07-20T11:39:13;26.04;53.03
65207;SHT31;58477;48.072;11.970;2023-07-20T11:41:46;26.78;51.90
65207;SHT31;58477;48.072;11.970;2023-07-20T11:44:12;27.59;51.46
65207;SHT31;58477;48.072;11.970;2023-07-20T11:46:44;26.63;51.86
65207;SHT31;58477;48.072;11.970;2023-07-20T11:49:10;26.36;52.91
65207;SHT31;58477;48.072;11.970;2023-07-20T11:51:36;25.18;54.84
65207;SHT31;58477;48.072;11.970;2023-07-20T11:54:04;25.42;53.64
65207;SHT31;58477;48.072;11.970;2023-07-20T11:56:30;25.83;55.27
65207;SHT31;58477;48.072;11.970;2023-07-20T11:58:57;26.03;55.40
65207;SHT31;58477;48.072;11.970;2023-07-20T12:01:26;25.65;56.43
65207;SHT31;58477;48.072;11.970;2023-07-20T12:03:55;26.20;55.61
65207;SHT31;58477;48.072;11.970;2023-07-20T12:06:25;26.76;54.09
65207;SHT31;58477;48.072;11.970;2023-07-20T12:08:55;26.73;49.63
65207;SHT31;58477;48.072;11.970;2023-07-20T12:11:37;27.11;50.54
65207;SHT31;58477;48.072;11.970;2023-07-20T12:14:04;26.97;50.76
65207;SHT31;58477;48.072;11.970;2023-07-20T12:16:30;28.03;53.95
65207;SHT31;58477;48.072;11.970;2023-07-20T12:19:00;28.03;49.07
65207;SHT31;58477;48.072;11.970;2023-07-20T12:21:28;27.38;50.88
65207;SHT31;58477;48.072;11.970;2023-07-20T12:23:56;27.51;50.46
65207;SHT31;58477;48.072;11.970;2023-07-20T12:26:22;28.30;49.18
65207;SHT31;58477;48.072;11.970;2023-07-20T12:28:49;28.20;48.87
65207;SHT31;58477;48.072;11.970;2023-07-20T12:31:15;28.46;49.16
65207;SHT31;58477;48.072;11.970;2023-07-20T12:33:41;28.12;47.75
65207;SHT31;58477;48.072;11.970;2023-07-20T12:36:08;27.53;48.00
65207;SHT31;58477;48.072;11.970;2023-07-20T12:38:34;28.34;50.94
65207;SHT31;58477;48.072;11.970;2023-07-20T12:41:02;29.45;49.47
65207;SHT31;58477;48.072;11.970;2023-07-20T12:43:29;29.58;49.62
65207;SHT31;58477;48.072;11.970;2023-07-20T12:45:55;29.72;49.84
65207;SHT31;58477;48.072;11.970;2023-07-20T12:48:21;30.19;48.25
65207;SHT31;58477;48.072;11.970;2023-07-20T12:50:47;29.14;45.88
65207;SHT31;58477;48.072;11.970;2023-07-20T12:53:13;29.14;47.77
65207;SHT31;58477;48.072;11.970;2023-07-20T12:55:38;29.29;47.34
65207;SHT31;58477;48.072;11.970;2023-07-20T12:58:07;29.33;46.78
65207;SHT31;58477;48.072;11.970;2023-07-20T13:00:33;29.26;46.36
65207;SHT31;58477;48.072;11.970;2023-07-20T13:02:59;28.74;51.36
65207;SHT31;58477;48.072;11.970;2023-07-20T13:05:25;27.52;48.29
65207;SHT31;58477;48.072;11.970;2023-07-20T13:07:50;28.04;51.99
65207;SHT31;58477;48.072;11.970;2023-07-20T13:10:16;27.67;51.22
65207;SHT31;58477;48.072;11.970;2023-07-20T13:12:42;26.84;51.39
65207;SHT31;58477;48.072;11.970;2023-07-20T13:15:09;27.27;52.76
65207;SHT31;58477;48.072;11.970;2023-07-20T13:17:35;26.48;50.94
65207;SHT31;58477;48.072;11.970;2023-07-20T13:20:02;26.63;52.61
65207;SHT31;58477;48.072;11.970;2023-07-20T13:22:30;27.32;51.15
65207;SHT31;58477;48.072;11.970;2023-07-20T13:24:55;27.22;52.15
65207;SHT31;58477;48.072;11.970;2023-07-20T13:27:21;27.27;52.32
65207;SHT31;58477;48.072;11.970;2023-07-20T13:29:46;27.08;52.07
65207;SHT31;58477;48.072;11.970;2023-07-20T13:32:15;27.92;50.92
65207;SHT31;58477;48.072;11.970;2023-07-20T13:34:41;27.99;49.84
65207;SHT31;58477;48.072;11.970;2023-07-20T13:37:08;27.97;50.22
65207;SHT31;58477;48.072;11.970;2023-07-20T13:39:33;28.37;48.70
65207;SHT31;58477;48.072;11.970;2023-07-20T13:41:59;27.56;49.24
65207;SHT31;58477;48.072;11.970;2023-07-20T13:44:26;28.24;51.52
65207;SHT31;58477;48.072;11.970;2023-07-20T13:46:52;27.45;51.25
65207;SHT31;58477;48.072;11.970;2023-07-20T13:49:17;26.61;51.96
65207;SHT31;58477;48.072;11.970;2023-07-20T13:51:43;27.22;49.27
65207;SHT31;58477;48.072;11.970;2023-07-20T13:54:08;27.43;49.91
65207;SHT31;58477;48.072;11.970;2023-07-20T13:56:34;27.27;50.89
65207;SHT31;58477;48.072;11.970;2023-07-20T13:59:00;27.69;49.68
65207;SHT31;58477;48.072;11.970;2023-07-20T14:01:26;27.21;50.06
65207;SHT31;58477;48.072;11.970;2023-07-20T14:03:53;26.88;50.23
65207;SHT31;58477;48.072;11.970;2023-07-20T14:06:19;27.73;50.43
65207;SHT31;58477;48.072;11.970;2023-07-20T14:08:44;28.21;49.33
65207;SHT31;58477;48.072;11.970;2023-07-20T14:11:14;28.78;48.65
65207;SHT31;58477;48.072;11.970;2023-07-20T14:13:40;28.02;47.04
65207;SHT31;58477;48.072;11.970;2023-07-20T14:16:05;28.80;48.50
65207;SHT31;58477;48.072;11.970;2023-07-20T14:18:31;28.94;47.84
65207;SHT31;58477;48.072;11.970;2023-07-20T14:20:56;28.09;45.71
65207;SHT31;58477;48.072;11.970;2023-07-20T14:23:22;27.79;51.60
65207;SHT31;58477;48.072;11.970;2023-07-20T14:25:48;27.15;49.39
65207;SHT31;58477;48.072;11.970;2023-07-20T14:28:13;27.01;51.89
65207;SHT31;58477;48.072;11.970;2023-07-20T14:30:39;27.29;50.58
65207;SHT31;58477;48.072;11.970;2023-07-20T14:33:04;26.61;51.69
65207;SHT31;58477;48.072;11.970;2023-07-20T14:35:29;27.01;53.06
65207;SHT31;58477;48.072;11.970;2023-07-20T14:37:55;26.32;52.91
65207;SHT31;58477;48.072;11.970;2023-07-20T14:40:20;26.77;53.63
65207;SHT31;58477;48.072;11.970;2023-07-20T14:42:46;26.44;52.93
65207;SHT31;58477;48.072;11.970;2023-07-20T14:45:11;26.03;54.38
65207;SHT31;58477;48.072;11.970;2023-07-20T14:47:37;26.92;51.26
65207;SHT31;58477;48.072;11.970;2023-07-20T14:50:03;27.74;49.56
65207;SHT31;58477;48.072;11.970;2023-07-20T14:52:28;27.27;46.79
65207;SHT31;58477;48.072;11.970;2023-07-20T14:54:54;27.31;48.93
65207;SHT31;58477;48.072;11.970;2023-07-20T14:57:20;27.43;49.28
65207;SHT31;58477;48.072;11.970;2023-07-20T14:59:48;26.97;53.07
65207;SHT31;58477;48.072;11.970;2023-07-20T15:02:14;27.37;48.30
65207;SHT31;58477;48.072;11.970;2023-07-20T15:04:49;27.96;47.16
65207;SHT31;58477;48.072;11.970;2023-07-20T15:07:16;27.43;47.07
65207;SHT31;58477;48.072;11.970;2023-07-20T15:09:44;26.46;50.71
65207;SHT31;58477;48.072;11.970;2023-07-20T15:12:09;26.57;51.00
65207;SHT31;58477;48.072;11.970;2023-07-20T15:14:35;25.66;52.90
65207;SHT31;58477;48.072;11.970;2023-07-20T15:17:00;25.63;53.22
65207;SHT31;58477;48.072;11.970;2023-07-20T15:19:26;26.43;52.21
65207;SHT31;58477;48.072;11.970;2023-07-20T15:21:51;27.16;48.26
65207;SHT31;58477;48.072;11.970;2023-07-20T15:24:17;26.64;49.35
65207;SHT31;58477;48.072;11.970;2023-07-20T15:26:42;27.29;48.30
65207;SHT31;58477;48.072;11.970;2023-07-20T15:29:08;27.52;47.34